Time;durP1;ratioP1;P1;durP2;ratioP2;P2;SDS_P1;SDS_P2;PMS_P1;PMS_P2;Temp;Humidity;BMP_temperature;BMP_pressure;BME280_temperature;BME280_humidity;BME280_pressure;Samples;Min_cycle;Max_cycle;Signal;HPM_P1;HPM_P2
2021/01/29 00:00:42;;;;;;;11.68;4.75;;;;;;;2.43;90.97;99861.50;4992774;28;20510;-81
2021/01/29 00:03:11;;;;;;;13.43;4.75;;;;;;;2.46;90.30;99868.81;4987822;28;20034;-80
2021/01/29 00:05:58;;;;;;;7.10;3.92;;;;;;;2.37;90.69;99855.59;5005917;28;20041;-80
2021/01/29 00:08:25;;;;;;;10.68;4.22;;;;;;;2.45;90.44;99856.63;4980712;28;20061;-80
2021/01/29 00:10:52;;;;;;;8.77;4.25;;;;;;;2.53;90.26;99851.28;4993054;28;20395;-80
2021/01/29 00:13:20;;;;;;;9.77;5.05;;;;;;;2.58;90.70;99840.47;4991243;28;20033;-81
2021/01/29 00:15:46;;;;;;;6.63;4.38;;;;;;;2.72;89.58;99845.53;4981506;28;20034;-81
2021/01/29 00:18:12;;;;;;;11.90;5.20;;;;;;;2.66;89.78;99842.31;5015130;28;20034;-80
2021/01/29 00:20:38;;;;;;;7.47;4.53;;;;;;;2.66;89.00;99837.00;4989808;28;20120;-81
2021/01/29 00:23:03;;;;;;;11.90;5.28;;;;;;;2.70;88.90;99831.81;5006217;28;20034;-81
2021/01/29 00:25:41;;;;;;;9.00;5.13;;;;;;;2.67;88.97;99835.13;5013956;28;20030;-80
2021/01/29 00:28:07;;;;;;;11.85;5.55;;;;;;;2.51;89.71;99823.47;5011820;28;20111;-80
2021/01/29 00:30:34;;;;;;;9.43;5.50;;;;;;;2.56;89.83;99820.63;4998115;28;20034;-81
2021/01/29 00:33:01;;;;;;;8.25;5.25;;;;;;;2.72;89.71;99821.63;4989473;28;20593;-80
2021/01/29 00:35:29;;;;;;;11.02;5.50;;;;;;;2.64;88.90;99822.47;5005683;28;20042;-81
2021/01/29 00:37:56;;;;;;;12.45;5.20;;;;;;;2.44;89.48;99825.88;5005049;28;20089;-80
2021/01/29 00:40:22;;;;;;;9.32;5.20;;;;;;;2.37;89.95;99828.25;4981355;28;20058;-81
2021/01/29 00:42:48;;;;;;;9.73;4.28;;;;;;;2.27;90.17;99837.34;5006346;28;20033;-80
2021/01/29 00:45:15;;;;;;;8.07;4.25;;;;;;;2.03;90.92;99844.31;4997191;28;20030;-81
2021/01/29 00:47:41;;;;;;;10.70;4.82;;;;;;;2.22;91.74;99845.50;5000638;28;20390;-80
2021/01/29 00:50:08;;;;;;;6.80;4.38;;;;;;;2.34;91.97;99842.16;5001107;28;20062;-81
2021/01/29 00:52:34;;;;;;;7.80;4.38;;;;;;;2.15;91.37;99841.78;4988676;28;20043;-81
2021/01/29 00:55:00;;;;;;;8.57;4.72;;;;;;;2.01;92.22;99831.38;4976795;28;20084;-80
2021/01/29 00:57:26;;;;;;;6.93;4.72;;;;;;;2.24;92.33;99830.03;5002823;28;20041;-80
2021/01/29 01:00:14;;;;;;;7.25;4.32;;;;;;;2.59;91.55;99825.31;4997624;28;20038;-80
2021/01/29 01:02:47;;;;;;;6.55;4.32;;;;;;;2.60;90.55;99825.00;5010779;28;20028;-81
2021/01/29 01:05:15;;;;;;;7.07;4.30;;;;;;;2.67;91.15;99821.84;4986611;28;20403;-81
2021/01/29 01:07:41;;;;;;;6.78;4.38;;;;;;;2.66;90.03;99810.41;4986197;28;20038;-81
2021/01/29 01:10:25;;;;;;;9.05;4.68;;;;;;;2.64;90.22;99796.69;5001924;28;20073;-80
2021/01/29 01:13:20;;;;;;;6.75;4.20;;;;;;;2.62;89.58;99793.56;5000730;28;20790;-80
2021/01/29 01:16:05;;;;;;;6.22;4.28;;;;;;;2.65;88.81;99778.84;4995720;28;20045;-80
2021/01/29 01:18:31;;;;;;;7.25;4.28;;;;;;;2.60;89.49;99776.38;4993027;28;20034;-80
2021/01/29 01:21:07;;;;;;;9.73;5.05;;;;;;;2.82;89.00;99767.31;5015064;28;20106;-80
2021/01/29 01:23:34;;;;;;;7.63;4.57;;;;;;;2.91;88.21;99757.38;4995088;28;20048;-81
2021/01/29 01:26:00;;;;;;;7.50;4.93;;;;;;;2.85;88.38;99762.13;4998881;28;20037;-80
2021/01/29 01:28:44;;;;;;;7.25;5.00;;;;;;;2.78;88.75;99761.09;5002069;28;20108;-80
2021/01/29 01:31:18;;;;;;;7.50;4.78;;;;;;;2.67;88.64;99753.50;4993078;28;20049;-80
2021/01/29 01:34:00;;;;;;;8.63;5.10;;;;;;;2.57;89.24;99763.75;4999270;28;20037;-81
2021/01/29 01:36:45;;;;;;;12.05;4.70;;;;;;;2.77;89.28;99759.53;4991672;28;20588;-81
2021/01/29 01:39:30;;;;;;;7.82;4.78;;;;;;;2.86;88.99;99763.69;4991953;28;20038;-80
2021/01/29 01:41:56;;;;;;;8.10;4.60;;;;;;;2.26;89.34;99755.34;5000149;28;20030;-80
2021/01/29 01:44:33;;;;;;;11.38;4.70;;;;;;;2.42;90.80;99751.03;4988575;28;20057;-80
2021/01/29 01:47:21;;;;;;;7.68;4.95;;;;;;;2.53;90.38;99736.28;5002253;28;20395;-81
2021/01/29 01:50:31;;;;;;;7.15;4.18;;;;;;;2.50;90.05;99737.69;4971698;28;20035;-80
2021/01/29 01:52:57;;;;;;;8.00;4.50;;;;;;;2.66;89.78;99732.56;4985593;28;20049;-81
2021/01/29 01:55:34;;;;;;;6.25;3.90;;;;;;;2.57;89.34;99721.25;5004117;28;20141;-81
2021/01/29 01:58:16;;;;;;;7.40;3.97;;;;;;;2.65;89.42;99729.13;5001471;28;20041;-81
2021/01/29 02:01:04;;;;;;;7.85;4.20;;;;;;;2.77;89.07;99720.44;5002240;28;20046;-81
2021/01/29 02:03:52;;;;;;;8.88;4.47;;;;;;;2.64;88.89;99713.50;4998078;28;20037;-81
2021/01/29 02:06:55;;;;;;;10.63;3.92;;;;;;;2.53;88.75;99705.19;5002540;28;20122;-81
2021/01/29 02:09:46;;;;;;;7.35;3.75;;;;;;;2.54;89.92;99698.75;5000218;28;20033;-80
2021/01/29 02:12:12;;;;;;;4.75;3.40;;;;;;;2.59;89.45;99695.88;5000592;28;20399;-81
2021/01/29 02:15:01;;;;;;;6.10;3.00;;;;;;;2.32;88.69;99695.66;4982650;28;20030;-80
2021/01/29 02:17:51;;;;;;;8.65;3.40;;;;;;;2.10;91.00;99690.63;5005428;28;20101;-81
2021/01/29 02:21:01;;;;;;;8.57;2.85;;;;;;;2.48;90.65;99685.97;5004969;28;20048;-81
2021/01/29 02:24:23;;;;;;;5.72;2.83;;;;;;;2.64;88.97;99679.75;5009667;28;20086;-81
2021/01/29 02:27:14;;;;;;;3.78;2.80;;;;;;;2.62;88.66;99665.25;5013613;28;20026;-81
2021/01/29 02:30:03;;;;;;;7.07;2.88;;;;;;;2.73;88.34;99671.69;4984655;28;20467;-81
2021/01/29 02:33:00;;;;;;;4.97;2.80;;;;;;;2.74;88.72;99674.03;5008005;28;20030;-80
2021/01/29 02:35:48;;;;;;;4.40;2.65;;;;;;;2.73;88.01;99677.00;4986691;28;20022;-82
2021/01/29 02:38:42;;;;;;;2.70;2.45;;;;;;;2.79;87.99;99669.63;5005437;28;20046;-80
2021/01/29 02:41:45;;;;;;;5.22;2.42;;;;;;;2.80;87.73;99664.00;5012988;28;20042;-81
2021/01/29 02:44:25;;;;;;;7.45;2.67;;;;;;;2.81;87.28;99657.56;5004555;28;20037;-81
2021/01/29 02:47:35;;;;;;;4.80;2.50;;;;;;;2.67;88.31;99649.88;4942929;29;20040;-80
2021/01/29 02:50:12;;;;;;;5.60;2.53;;;;;;;2.52;88.36;99639.06;4930442;29;20585;-81
2021/01/29 02:53:10;;;;;;;;;;;;;;;2.41;88.62;99644.00;4952610;28;20042;-80
2021/01/29 02:56:04;;;;;;;6.80;2.58;;;;;;;2.55;88.93;99641.09;5002743;28;19925;-80
2021/01/29 02:58:51;;;;;;;5.68;2.70;;;;;;;2.59;89.24;99634.78;4984813;28;20410;-81
2021/01/29 03:01:55;;;;;;;4.80;2.58;;;;;;;2.80;88.14;99626.78;5001589;28;20115;-80
2021/01/29 03:04:47;;;;;;;5.57;2.75;;;;;;;2.81;88.25;99615.03;4997905;28;20080;-81
2021/01/29 03:07:23;;;;;;;4.38;2.80;;;;;;;2.77;87.28;99608.81;4998430;28;20066;-81
2021/01/29 03:10:24;;;;;;;8.45;2.60;;;;;;;2.72;88.08;99591.22;4977603;28;20046;-81
2021/01/29 03:13:40;;;;;;;6.20;2.83;;;;;;;2.63;88.56;99593.16;4989490;28;20557;-80
2021/01/29 03:16:28;;;;;;;5.07;2.95;;;;;;;2.42;89.94;99589.03;5010912;28;20104;-81
2021/01/29 03:19:23;;;;;;;4.68;2.75;;;;;;;2.32;90.02;99581.44;4999953;28;20053;-80
2021/01/29 03:22:47;;;;;;;5.93;2.85;;;;;;;2.48;89.46;99571.75;4995891;28;20049;-80
2021/01/29 03:25:36;;;;;;;4.95;2.65;;;;;;;2.49;88.59;99568.00;4973387;28;20085;-81
2021/01/29 03:28:24;;;;;;;4.50;2.95;;;;;;;2.65;88.42;99569.69;5001481;28;20573;-81
2021/01/29 03:31:13;;;;;;;6.35;2.80;;;;;;;2.32;89.34;99549.59;4993156;28;20069;-81
2021/01/29 03:34:13;;;;;;;7.32;3.05;;;;;;;2.51;89.50;99561.28;4984580;28;20096;-81
2021/01/29 03:37:07;;;;;;;4.30;2.47;;;;;;;2.68;88.88;99565.63;4991631;28;20643;-81
2021/01/29 03:39:51;;;;;;;6.20;3.20;;;;;;;2.54;89.11;99562.47;5004944;28;20388;-81
2021/01/29 03:42:47;;;;;;;4.30;3.13;;;;;;;2.37;87.96;99562.66;4997664;28;20056;-81
2021/01/29 03:45:40;;;;;;;4.20;2.83;;;;;;;2.08;89.57;99549.47;4999390;28;20117;-80
2021/01/29 03:48:30;;;;;;;9.55;3.67;;;;;;;2.15;88.70;99539.88;4999237;28;20734;-80
2021/01/29 03:51:38;;;;;;;7.63;3.20;;;;;;;2.37;89.31;99536.09;5007531;28;20045;-81
2021/01/29 03:54:34;;;;;;;4.15;3.05;;;;;;;2.52;89.21;99540.78;4996969;28;20057;-81
2021/01/29 03:57:35;;;;;;;3.75;2.70;;;;;;;2.39;88.44;99528.56;4999389;28;20418;-81
2021/01/29 04:00:38;;;;;;;6.47;2.75;;;;;;;2.41;88.71;99513.09;5010754;28;20056;-81
2021/01/29 04:03:38;;;;;;;5.35;3.45;;;;;;;2.34;88.87;99515.50;5000115;28;20098;-81
2021/01/29 04:06:43;;;;;;;8.10;2.80;;;;;;;2.33;89.53;99512.06;4984778;28;20034;-81
2021/01/29 04:10:00;;;;;;;5.65;3.22;;;;;;;2.53;88.87;99513.91;4999561;28;20125;-80
2021/01/29 04:13:21;;;;;;;8.07;2.95;;;;;;;2.52;88.29;99506.25;4999471;28;20042;-80
2021/01/29 04:15:50;;;;;;;8.82;2.63;;;;;;;2.34;88.28;99496.94;4997282;28;20088;-81
2021/01/29 04:18:27;;;;;;;3.50;2.65;;;;;;;2.59;88.22;99496.63;4984615;28;20030;-81
2021/01/29 04:21:05;;;;;;;7.43;2.60;;;;;;;2.50;87.76;99484.53;5002515;28;20376;-80
2021/01/29 04:23:36;;;;;;;3.85;2.55;;;;;;;2.54;87.61;99475.59;4994408;28;20034;-81
2021/01/29 04:26:08;;;;;;;3.55;2.35;;;;;;;2.25;88.86;99469.66;4977868;28;20037;-80
2021/01/29 04:28:42;;;;;;;4.43;2.60;;;;;;;2.25;89.57;99478.41;4971459;28;20165;-81
2021/01/29 04:31:10;;;;;;;6.88;2.60;;;;;;;2.09;89.92;99461.53;4998212;28;20042;-81
2021/01/29 04:33:41;;;;;;;6.18;2.92;;;;;;;2.01;90.82;99459.00;4993754;28;20038;-80
2021/01/29 04:36:09;;;;;;;5.70;2.90;;;;;;;2.27;90.63;99447.00;4999176;28;20092;-81
2021/01/29 04:38:34;;;;;;;4.72;2.30;;;;;;;2.39;89.94;99443.59;4998092;28;20033;-80
2021/01/29 04:41:03;;;;;;;5.03;2.28;;;;;;;2.50;89.23;99439.38;4980236;28;20076;-80
2021/01/29 04:43:44;;;;;;;6.03;2.30;;;;;;;2.38;89.64;99434.84;5010748;28;20068;-80
2021/01/29 04:46:20;;;;;;;4.78;2.38;;;;;;;2.41;89.54;99430.75;4994597;28;20041;-81
2021/01/29 04:49:00;;;;;;;2.38;1.98;;;;;;;2.28;89.70;99422.00;4999270;28;20132;-80
2021/01/29 04:52:04;;;;;;;3.95;2.00;;;;;;;2.35;89.58;99427.53;5016044;28;20049;-79
2021/01/29 04:54:45;;;;;;;5.93;2.08;;;;;;;2.54;88.84;99435.75;4985276;28;20113;-80
2021/01/29 04:57:32;;;;;;;3.45;2.22;;;;;;;2.53;88.81;99414.84;5028816;28;20111;-80
2021/01/29 05:00:03;;;;;;;6.93;1.88;;;;;;;2.50;88.62;99396.88;5001646;28;20030;-80
2021/01/29 05:03:25;;;;;;;5.47;2.17;;;;;;;2.49;88.42;99392.69;5009490;28;20049;-80
2021/01/29 05:06:12;;;;;;;;;;;;;;;1.94;90.30;99384.44;4993509;28;20049;-80
2021/01/29 05:09:44;;;;;;;5.55;2.05;;;;;;;2.03;90.90;99377.16;5001494;28;19914;-80
2021/01/29 05:12:38;;;;;;;3.70;1.57;;;;;;;1.93;90.84;99372.28;4994645;28;20056;-80
2021/01/29 05:15:30;;;;;;;3.08;1.83;;;;;;;1.83;91.55;99371.59;5014839;28;20041;-80
2021/01/29 05:20:47;;;;;;;6.72;1.98;;;;;;;1.91;90.98;99345.28;5051286;28;20038;-84
2021/01/29 05:23:39;;;;;;;2.30;1.60;;;;;;;2.25;90.07;99321.75;5048687;28;20029;-84
2021/01/29 05:26:14;;;;;;;4.80;1.90;;;;;;;2.03;89.60;99326.75;5005652;28;20035;-82
2021/01/29 05:28:58;;;;;;;2.72;1.75;;;;;;;2.07;90.04;99330.28;5021545;28;20661;-84
2021/01/29 05:31:33;;;;;;;5.60;1.80;;;;;;;1.97;89.80;99320.09;5033823;28;20037;-84
2021/01/29 05:34:07;;;;;;;5.07;2.00;;;;;;;2.09;89.84;99330.72;5009621;28;20121;-84
2021/01/29 05:37:10;;;;;;;6.15;1.85;;;;;;;2.16;89.45;99317.66;5034207;28;20044;-84
2021/01/29 05:39:47;;;;;;;5.25;1.88;;;;;;;2.13;89.59;99313.03;5004928;28;20033;-83
2021/01/29 05:42:36;;;;;;;4.53;2.08;;;;;;;2.05;89.02;99312.03;5013937;28;20042;-84
2021/01/29 05:45:14;;;;;;;3.50;1.98;;;;;;;1.72;89.81;99314.72;5020507;28;20041;-85
2021/01/29 05:48:10;;;;;;;3.72;1.90;;;;;;;1.77;90.95;99308.44;5036700;28;20083;-84
2021/01/29 05:50:55;;;;;;;5.75;2.15;;;;;;;1.68;90.29;99313.09;5009093;28;20029;-83
2021/01/29 05:53:39;;;;;;;3.50;2.05;;;;;;;1.67;90.58;99308.88;5019151;28;20036;-84
2021/01/29 05:56:26;;;;;;;9.55;2.58;;;;;;;1.70;90.83;99319.59;5016440;28;20028;-84
2021/01/29 05:59:39;;;;;;;7.88;2.40;;;;;;;2.01;90.64;99318.31;5011337;28;20044;-82
2021/01/29 06:02:29;;;;;;;5.95;2.42;;;;;;;2.13;89.59;99305.06;4954590;28;20047;-85
2021/01/29 06:05:21;;;;;;;5.97;3.00;;;;;;;2.13;89.07;99308.47;5019500;28;20704;-83
2021/01/29 06:08:11;;;;;;;6.40;3.00;;;;;;;2.18;89.13;99300.31;4995937;28;20056;-84
2021/01/29 06:11:11;;;;;;;6.13;2.55;;;;;;;2.12;89.00;99303.50;5020058;28;20086;-84
2021/01/29 06:14:10;;;;;;;5.85;2.60;;;;;;;2.15;88.65;99297.53;5017911;28;20128;-83
2021/01/29 06:17:13;;;;;;;8.20;3.00;;;;;;;2.06;89.54;99276.41;5032230;28;20055;-82
2021/01/29 06:19:41;;;;;;;5.05;2.55;;;;;;;2.12;88.68;99271.66;5011100;28;20037;-84
2021/01/29 06:22:18;;;;;;;8.15;2.90;;;;;;;1.96;88.50;99260.16;5018260;28;20031;-84
2021/01/29 06:25:07;;;;;;;6.88;2.78;;;;;;;2.13;88.52;99254.63;4999545;28;20041;-84
2021/01/29 06:27:54;;;;;;;2.75;2.35;;;;;;;2.18;87.62;99239.25;5002104;28;20041;-84
2021/01/29 06:30:39;;;;;;;7.65;2.90;;;;;;;2.01;88.43;99255.41;5006059;28;20124;-82
2021/01/29 06:33:42;;;;;;;4.10;2.88;;;;;;;2.17;89.08;99266.88;5024021;28;20032;-84
2021/01/29 06:36:31;;;;;;;5.68;2.30;;;;;;;1.84;88.10;99261.69;5006587;28;20541;-82
2021/01/29 06:39:11;;;;;;;5.78;2.47;;;;;;;1.94;88.92;99251.75;5021288;28;20071;-84
2021/01/29 06:41:46;;;;;;;3.88;2.80;;;;;;;2.10;88.36;99247.31;5000646;28;20434;-84
2021/01/29 06:44:20;;;;;;;4.55;2.22;;;;;;;1.83;87.90;99230.97;5028504;28;20071;-83
2021/01/29 06:47:20;;;;;;;2.50;1.55;;;;;;;1.93;88.60;99229.75;5041459;28;20025;-82
2021/01/29 06:50:10;;;;;;;6.82;1.85;;;;;;;2.18;87.45;99220.66;4991366;28;20037;-83
2021/01/29 06:52:49;;;;;;;5.50;2.00;;;;;;;1.89;86.75;99228.09;5010885;28;20095;-82
2021/01/29 06:55:40;;;;;;;3.05;1.88;;;;;;;2.25;86.65;99222.75;5043136;28;20041;-83
2021/01/29 06:58:09;;;;;;;5.20;1.60;;;;;;;2.20;87.12;99218.44;4996728;28;20042;-83
2021/01/29 07:00:38;;;;;;;4.18;1.63;;;;;;;2.36;87.08;99210.56;5013674;28;20441;-84
2021/01/29 07:03:04;;;;;;;3.80;1.88;;;;;;;2.39;85.91;99204.56;5022073;28;20060;-84
2021/01/29 07:05:58;;;;;;;3.90;1.50;;;;;;;1.97;86.29;99198.00;4989645;28;20038;-84
2021/01/29 07:08:50;;;;;;;3.40;1.48;;;;;;;2.05;86.07;99181.97;5013793;28;20037;-84
2021/01/29 07:11:33;;;;;;;6.85;1.40;;;;;;;1.96;85.42;99191.94;5007087;28;20518;-84
2021/01/29 07:14:36;;;;;;;2.92;1.35;;;;;;;2.10;85.92;99191.56;5017644;28;20104;-83
2021/01/29 07:17:13;;;;;;;1.77;1.33;;;;;;;1.70;85.71;99188.84;5013780;28;20041;-85
2021/01/29 07:20:02;;;;;;;3.80;1.38;;;;;;;1.99;86.56;99191.28;5021607;28;20034;-84
2021/01/29 07:22:44;;;;;;;3.65;1.27;;;;;;;1.82;85.15;99181.66;5015911;28;20511;-83
2021/01/29 07:25:27;;;;;;;3.17;1.20;;;;;;;1.98;85.69;99170.34;5021959;28;20037;-82
2021/01/29 07:28:05;;;;;;;3.25;1.20;;;;;;;2.23;84.95;99169.97;5013671;28;20132;-82
2021/01/29 07:30:51;;;;;;;2.42;1.25;;;;;;;2.10;84.82;99160.50;5005212;28;20095;-82
2021/01/29 07:33:32;;;;;;;2.97;1.30;;;;;;;2.07;84.73;99163.06;4996913;28;20045;-83
2021/01/29 07:36:32;;;;;;;4.57;1.90;;;;;;;2.02;84.91;99163.28;5000325;28;20041;-83
2021/01/29 07:39:06;;;;;;;2.75;1.10;;;;;;;2.22;84.01;99165.00;5013261;28;20513;-84
2021/01/29 07:42:08;;;;;;;2.20;1.38;;;;;;;2.21;83.54;99168.75;5027439;28;20392;-83
2021/01/29 07:44:36;;;;;;;4.43;1.25;;;;;;;2.50;82.75;99157.81;4990815;28;20063;-83
2021/01/29 07:47:22;;;;;;;3.40;1.02;;;;;;;2.35;81.12;99153.25;5010550;28;20044;-83
2021/01/29 07:50:02;;;;;;;3.03;1.00;;;;;;;2.11;82.26;99155.97;5022343;28;20038;-82
2021/01/29 07:52:44;;;;;;;3.50;1.30;;;;;;;1.71;83.23;99148.72;5018387;28;20034;-83
2021/01/29 07:55:22;;;;;;;2.53;1.10;;;;;;;1.63;84.21;99144.31;5002565;28;20029;-83
2021/01/29 07:58:13;;;;;;;3.97;1.30;;;;;;;1.83;84.98;99140.78;5012301;28;20129;-83
2021/01/29 08:00:45;;;;;;;5.55;1.80;;;;;;;1.75;84.06;99123.09;5039050;28;20121;-82
2021/01/29 08:03:29;;;;;;;3.17;1.30;;;;;;;1.94;83.86;99130.44;5028081;28;20446;-83
2021/01/29 08:06:04;;;;;;;1.65;1.10;;;;;;;1.97;82.56;99139.63;4992299;28;20132;-83
2021/01/29 08:08:36;;;;;;;3.05;1.10;;;;;;;2.11;82.25;99129.44;5014121;28;20047;-83
2021/01/29 08:11:03;;;;;;;;;;;;;;;2.11;81.41;99134.75;5000920;28;20737;-84
2021/01/29 08:14:00;;;;;;;4.68;1.25;;;;;;;1.88;81.90;99131.78;5027309;28;20408;-82
2021/01/29 08:16:38;;;;;;;2.45;1.15;;;;;;;2.15;81.38;99125.00;4993316;28;20543;-84
2021/01/29 08:19:11;;;;;;;1.40;0.90;;;;;;;1.97;80.80;99118.41;5011439;28;20030;-83
2021/01/29 08:21:52;;;;;;;1.75;1.20;;;;;;;2.02;81.25;99115.50;5017301;28;20079;-84
2021/01/29 08:24:39;;;;;;;3.92;1.50;;;;;;;2.08;81.00;99100.88;5012682;28;20532;-84
2021/01/29 08:27:26;;;;;;;3.03;1.40;;;;;;;2.00;80.80;99109.75;5021094;28;20136;-84
2021/01/29 08:30:37;;;;;;;2.53;1.20;;;;;;;2.05;80.30;99098.91;5022896;28;20513;-82
2021/01/29 08:33:38;;;;;;;2.47;1.30;;;;;;;1.86;80.63;99101.41;5025614;28;20033;-82
2021/01/29 08:36:23;;;;;;;4.10;1.17;;;;;;;1.96;81.66;99103.56;4998571;28;20045;-83
2021/01/29 08:38:52;;;;;;;3.95;1.38;;;;;;;2.11;80.71;99094.94;5016214;28;20037;-82
2021/01/29 08:41:35;;;;;;;2.90;1.10;;;;;;;2.16;79.94;99094.69;5004306;28;20096;-82
2021/01/29 08:44:24;;;;;;;2.97;1.30;;;;;;;2.27;78.96;99090.41;5027338;28;20041;-82
2021/01/29 08:47:17;;;;;;;1.15;1.05;;;;;;;2.42;78.80;99090.47;4999420;28;20034;-82
2021/01/29 08:50:02;;;;;;;3.67;1.30;;;;;;;2.48;78.69;99091.78;5005582;28;20068;-82
2021/01/29 08:52:33;;;;;;;3.70;1.10;;;;;;;2.32;78.92;99090.19;5022102;28;20056;-84
2021/01/29 08:55:09;;;;;;;6.57;1.60;;;;;;;2.47;78.06;99086.81;5015415;28;20033;-83
2021/01/29 08:57:53;;;;;;;2.28;1.60;;;;;;;2.46;76.57;99077.28;5000562;28;20029;-83
2021/01/29 09:00:27;;;;;;;2.75;1.35;;;;;;;2.71;76.44;99076.03;5022551;28;20067;-82
2021/01/29 09:03:20;;;;;;;3.42;1.35;;;;;;;2.65;74.76;99064.88;5007662;28;20041;-83
2021/01/29 09:05:49;;;;;;;4.15;1.45;;;;;;;2.18;76.49;99072.00;5018769;28;20029;-82
2021/01/29 09:08:19;;;;;;;3.90;1.40;;;;;;;2.12;76.26;99062.72;5017453;28;20025;-83
2021/01/29 09:11:02;;;;;;;2.42;1.15;;;;;;;2.30;76.82;99085.22;5021460;28;20091;-83
2021/01/29 09:13:30;;;;;;;3.42;1.50;;;;;;;2.31;75.67;99072.72;5013911;28;20033;-83
2021/01/29 09:16:21;;;;;;;7.15;1.70;;;;;;;2.33;76.79;99065.19;5026011;28;20057;-83
2021/01/29 09:18:52;;;;;;;3.17;1.30;;;;;;;2.44;76.24;99079.53;5013961;28;20473;-83
2021/01/29 09:21:18;;;;;;;;;;;;;;;2.63;75.43;99087.63;5039304;28;20033;-84
2021/01/29 09:24:02;;;;;;;1.88;1.55;;;;;;;2.63;75.00;99071.69;5028273;28;20295;-81
2021/01/29 09:26:42;;;;;;;4.28;1.55;;;;;;;2.40;74.54;99079.41;5015830;28;20041;-83
2021/01/29 09:29:24;;;;;;;3.33;1.83;;;;;;;2.62;75.33;99064.81;5017499;28;20424;-82
2021/01/29 09:31:59;;;;;;;2.45;1.48;;;;;;;2.57;72.88;99073.03;5021449;28;20148;-83
2021/01/29 09:34:56;;;;;;;4.43;1.58;;;;;;;2.74;73.80;99078.81;5024976;28;20037;-83
2021/01/29 09:37:29;;;;;;;3.30;1.40;;;;;;;2.68;71.95;99071.41;5013642;28;20414;-84
2021/01/29 09:39:54;;;;;;;4.45;1.52;;;;;;;2.58;73.48;99074.56;5022280;28;20029;-84
2021/01/29 09:42:47;;;;;;;3.45;1.58;;;;;;;2.83;73.00;99056.63;5007391;28;20032;-83
2021/01/29 09:45:20;;;;;;;3.47;1.35;;;;;;;2.88;73.12;99067.75;5003505;28;20103;-82
2021/01/29 09:47:54;;;;;;;3.05;1.50;;;;;;;2.79;72.10;99067.13;5025813;28;20069;-85
2021/01/29 09:50:24;;;;;;;2.63;1.50;;;;;;;2.43;73.17;99064.69;5031657;28;20064;-83
2021/01/29 09:52:56;;;;;;;3.97;1.33;;;;;;;2.69;73.60;99062.34;5008129;28;20080;-82
2021/01/29 09:55:35;;;;;;;3.85;1.40;;;;;;;2.80;73.02;99058.06;4998840;28;20033;-82
2021/01/29 09:58:19;;;;;;;2.90;1.80;;;;;;;2.80;73.41;99055.41;5010341;28;20037;-83
2021/01/29 10:00:58;;;;;;;4.68;1.52;;;;;;;2.89;72.15;99058.66;4994363;28;20080;-83
2021/01/29 10:03:31;;;;;;;2.88;1.40;;;;;;;2.73;73.01;99057.88;5002887;28;20033;-82
2021/01/29 10:06:02;;;;;;;2.72;1.95;;;;;;;2.63;73.09;99051.19;5008846;28;20028;-83
2021/01/29 10:08:48;;;;;;;2.78;1.50;;;;;;;2.64;73.06;99062.56;5014485;28;20037;-83
2021/01/29 10:11:45;;;;;;;3.83;1.50;;;;;;;2.72;72.39;99053.69;5028877;28;20061;-83
2021/01/29 10:14:27;;;;;;;2.13;1.30;;;;;;;2.69;72.20;99057.03;4994792;28;20034;-84
2021/01/29 10:17:01;;;;;;;5.03;1.70;;;;;;;2.81;72.43;99059.59;5023176;28;20049;-84
2021/01/29 10:19:43;;;;;;;2.28;1.40;;;;;;;2.97;71.54;99054.28;5020408;28;20411;-83
2021/01/29 10:22:27;;;;;;;1.88;1.65;;;;;;;2.55;71.25;99059.31;5018976;28;20029;-83
2021/01/29 10:25:20;;;;;;;3.65;1.65;;;;;;;2.67;72.09;99053.94;5026001;28;20140;-83
2021/01/29 10:27:58;;;;;;;3.88;1.58;;;;;;;2.77;72.50;99048.09;5017263;28;20064;-83
2021/01/29 10:30:45;;;;;;;5.18;1.70;;;;;;;2.92;72.03;99038.59;5022967;28;20119;-83
2021/01/29 10:33:21;;;;;;;4.28;1.40;;;;;;;3.05;69.69;99046.13;5022039;28;20036;-83
2021/01/29 10:36:05;;;;;;;3.08;1.38;;;;;;;2.85;70.01;99038.41;5020354;28;20123;-82
2021/01/29 10:39:02;;;;;;;5.10;1.77;;;;;;;3.05;69.95;99029.41;5021977;28;20523;-84
2021/01/29 10:41:48;;;;;;;2.92;1.48;;;;;;;2.71;69.90;99030.88;5016024;28;20033;-84
2021/01/29 10:44:19;;;;;;;5.10;1.95;;;;;;;2.80;69.81;99026.16;5032598;28;20410;-84
2021/01/29 10:47:10;;;;;;;3.63;2.03;;;;;;;2.96;70.32;99021.59;5019026;28;20033;-82
2021/01/29 10:50:17;;;;;;;4.18;1.63;;;;;;;3.10;68.83;99021.94;5037565;28;20041;-83
2021/01/29 10:53:00;;;;;;;4.75;1.65;;;;;;;3.09;68.47;99020.41;4923427;28;20039;-84
2021/01/29 10:55:35;;;;;;;3.40;1.77;;;;;;;3.33;68.11;99025.50;5003503;28;20114;-84
2021/01/29 10:58:34;;;;;;;2.35;1.63;;;;;;;3.11;66.08;99017.41;4997801;28;20560;-83
2021/01/29 11:01:05;;;;;;;3.47;1.58;;;;;;;3.28;66.34;99020.47;5030399;28;20042;-85
2021/01/29 11:03:44;;;;;;;2.33;1.50;;;;;;;3.05;66.18;99008.91;5000327;28;20088;-83
2021/01/29 11:06:13;;;;;;;3.63;1.85;;;;;;;2.89;67.47;99005.50;5017220;28;20036;-86
2021/01/29 11:08:42;;;;;;;3.22;2.50;;;;;;;3.07;67.11;99009.34;5021153;28;20498;-84
2021/01/29 11:11:18;;;;;;;1.88;1.30;;;;;;;3.29;67.39;99021.25;5010709;28;20025;-82
2021/01/29 11:14:01;;;;;;;5.43;2.10;;;;;;;3.21;65.74;99022.19;5009951;28;20048;-82
2021/01/29 11:16:48;;;;;;;6.28;2.55;;;;;;;3.21;66.07;99024.84;5019332;28;20029;-83
2021/01/29 11:19:22;;;;;;;2.95;1.70;;;;;;;3.39;65.27;99023.34;5020383;23;20042;-78
2021/01/29 11:22:14;;;;;;;3.75;1.73;;;;;;;3.47;65.15;99027.69;5027426;28;20489;-78
2021/01/29 11:24:59;;;;;;;2.05;1.42;;;;;;;3.64;64.83;99036.06;4999123;28;20148;-78
2021/01/29 11:27:32;;;;;;;4.25;1.70;;;;;;;3.65;63.70;99034.19;5031586;28;20517;-78
2021/01/29 11:30:21;;;;;;;3.08;1.13;;;;;;;3.67;63.54;99024.72;5016424;28;20064;-77
2021/01/29 11:33:01;;;;;;;2.35;1.30;;;;;;;3.53;62.71;99026.31;4963796;28;20051;-78
2021/01/29 11:35:38;;;;;;;5.32;2.20;;;;;;;3.45;61.48;99024.59;4947884;28;20114;-77
2021/01/29 11:38:33;;;;;;;3.35;1.60;;;;;;;3.36;62.22;99027.47;4933324;28;20039;-77
2021/01/29 11:41:13;;;;;;;1.60;1.45;;;;;;;3.01;62.23;99031.22;4942463;28;20043;-76
2021/01/29 11:43:44;;;;;;;4.47;1.80;;;;;;;3.13;61.44;99026.59;4933562;28;20166;-78
2021/01/29 11:46:30;;;;;;;;;;;;;;;2.89;62.93;99018.78;4927034;28;20454;-78
2021/01/29 11:49:02;;;;;;;2.58;1.60;;;;;;;3.15;62.79;99021.69;4940000;28;19923;-78
2021/01/29 11:51:48;;;;;;;3.08;1.50;;;;;;;3.21;64.01;99030.16;4937570;28;20066;-79
2021/01/29 11:54:31;;;;;;;3.58;1.65;;;;;;;2.90;64.11;99030.19;4941747;28;20035;-78
2021/01/29 11:57:08;;;;;;;5.03;1.73;;;;;;;2.90;62.26;99033.63;4928316;28;20043;-78
2021/01/29 11:59:45;;;;;;;3.83;1.10;;;;;;;3.06;63.13;99018.41;4943991;29;20166;-78
2021/01/29 12:02:29;;;;;;;2.28;1.35;;;;;;;3.33;62.78;99028.16;4931320;29;20047;-78
2021/01/29 12:05:20;;;;;;;3.05;1.30;;;;;;;3.39;62.85;99026.78;4940403;28;20797;-78
2021/01/29 12:08:00;;;;;;;3.73;1.60;;;;;;;3.44;61.72;99034.50;4940987;28;20043;-78
2021/01/29 12:10:53;;;;;;;4.72;1.70;;;;;;;3.49;62.38;99034.22;4994192;28;20065;-78
2021/01/29 12:13:34;;;;;;;1.90;1.55;;;;;;;3.38;63.04;99027.91;5004918;28;20038;-79
2021/01/29 12:16:03;;;;;;;4.80;1.67;;;;;;;3.42;63.80;99030.63;4999518;28;20085;-78
2021/01/29 12:18:32;;;;;;;2.60;1.67;;;;;;;3.21;63.87;99022.19;4991747;28;20042;-78
2021/01/29 12:21:15;;;;;;;4.72;1.70;;;;;;;3.14;65.33;99014.81;4993000;28;20033;-77
2021/01/29 12:23:56;;;;;;;4.82;1.55;;;;;;;2.98;65.46;99016.72;5006656;28;20042;-78
2021/01/29 12:26:26;;;;;;;2.97;1.90;;;;;;;2.91;66.60;99013.91;5008606;28;20041;-77
2021/01/29 12:29:21;;;;;;;3.47;1.55;;;;;;;2.98;67.91;99008.75;5011057;28;20045;-78
2021/01/29 12:32:03;;;;;;;3.92;1.77;;;;;;;3.23;67.96;99014.63;4988531;28;20041;-77
2021/01/29 12:34:41;;;;;;;3.95;1.45;;;;;;;3.05;68.88;99016.91;5010827;28;20060;-78
2021/01/29 12:37:28;;;;;;;4.75;1.80;;;;;;;2.92;71.13;99004.81;5006641;28;20056;-77
2021/01/29 12:39:59;;;;;;;2.67;1.63;;;;;;;2.98;72.96;99008.75;5015254;28;20052;-77
2021/01/29 12:42:40;;;;;;;2.88;1.25;;;;;;;2.71;73.12;99009.59;5000628;28;20022;-77
2021/01/29 12:45:14;;;;;;;2.28;1.40;;;;;;;2.66;75.67;98994.72;4990947;28;20038;-77
2021/01/29 12:47:54;;;;;;;4.38;1.90;;;;;;;2.68;77.09;98997.81;4989528;28;20067;-77
2021/01/29 12:50:31;;;;;;;3.85;1.95;;;;;;;2.67;77.83;98992.84;5013225;28;20037;-78
2021/01/29 12:53:24;;;;;;;6.20;1.77;;;;;;;2.65;78.53;98995.06;4995462;28;20041;-78
2021/01/29 12:56:20;;;;;;;3.03;1.50;;;;;;;2.55;80.30;98990.25;5004382;28;20053;-77
2021/01/29 12:58:53;;;;;;;3.08;1.73;;;;;;;2.64;81.44;98994.28;5012786;28;20042;-78